Patience Lab — WDH3221 — position and weather

sailwx.info

Track history (hours):
 
Tides and Currents Weather Stations Pressure Air Temp Water Temp Dewpoint Dewpoint Depression Visibility Wind Speed Wind Dir Waves Ship Positions

Patience Lab

Owner: P&R Water Taxi, Honolulu, HI. More information available from US FCC via Universal Licensing System and Coast Guard Vessel Documentation Center.

Last reported at 2017-Sep-12 05:17 UTC. Time now 2017-Sep-22 11:52 UTC.
Position N 29°49' W 093°21'.
Warning: this ship's position is 10 days out of date.

Length 48 m; draft 3.2 m.

Type: Cargo ship. MMSI: 367605530.

Date/timePositionNaut miles runAvg speedWind from/ knotsBaromVisibWave heightAir tempDewpointWater temp
2017-Sep-12 05:17N 29°49' W 093°21'1 0.6
2017-Sep-12 04:02N 29°49' W 093°20'0 0.0
2017-Sep-12 03:55N 29°49' W 093°20'0 0.0
2017-Sep-12 02:13N 29°49' W 093°20'0 0.1
2017-Sep-12 02:00N 29°49' W 093°20'0 0.9
2017-Sep-12 01:30N 29°49' W 093°21'0 0.0
2017-Sep-11 06:05N 29°49' W 093°21'0 0.0
2017-Sep-11 05:33N 29°49' W 093°21'0 0.0
2017-Sep-11 05:29N 29°49' W 093°21'0 0.0
2017-Sep-10 10:03N 29°49' W 093°21'0 0.0
2017-Sep-10 08:24N 29°49' W 093°21'0 0.0
2017-Sep-10 07:55N 29°49' W 093°21'0 0.0
2017-Sep-10 07:29N 29°49' W 093°21'0 0.0
2017-Sep-10 06:59N 29°49' W 093°21'0 0.0
2017-Sep-10 05:20N 29°49' W 093°21'0 0.0
2017-Sep-10 04:20N 29°49' W 093°21'0 0.0
2017-Sep-10 04:00N 29°49' W 093°21'0 0.0
2017-Sep-10 03:30N 29°49' W 093°21'0 0.0
2017-Sep-10 03:00N 29°49' W 093°21'0 0.0
2017-Sep-09 10:25N 29°49' W 093°21'0 0.0
2017-Sep-09 09:18N 29°49' W 093°21'0 0.0
2017-Sep-09 08:58N 29°49' W 093°21'0 0.0
2017-Sep-09 08:30N 29°49' W 093°21'0 0.0
2017-Sep-09 07:59N 29°49' W 093°21'0 0.0
2017-Sep-09 07:30N 29°49' W 093°21'0 0.0
2017-Sep-09 07:00N 29°49' W 093°21'0 0.0
2017-Sep-09 06:30N 29°49' W 093°21'0 0.0
2017-Sep-09 04:36N 29°49' W 093°21'0 0.0
2017-Sep-09 04:29N 29°49' W 093°21'0 0.0
2017-Sep-09 03:49N 29°49' W 093°21'0 0.0
2017-Sep-09 02:19N 29°49' W 093°21'0 0.0
2017-Sep-09 01:10N 29°49' W 093°21'0 0.0
2017-Sep-09 00:50N 29°49' W 093°21'1 0.0
2017-Sep-08 09:52N 29°49' W 093°20'0 0.0
2017-Sep-08 08:48N 29°49' W 093°20'0 0.0
2017-Sep-08 08:18N 29°49' W 093°20'0 0.0
2017-Sep-08 07:55N 29°49' W 093°20'0 0.0
2017-Sep-08 07:30N 29°49' W 093°20'0 0.0
2017-Sep-08 06:44N 29°49' W 093°20'0 0.0
2017-Sep-08 06:16N 29°49' W 093°20'0 0.1
2017-Sep-08 04:57N 29°49' W 093°20'  
2017-Sep-02 12:40N 29°37' W 093°23'1 9.1
2017-Sep-02 12:30N 29°37' W 093°22'3 4.8
2017-Sep-02 11:51N 29°38' W 093°18'0 0.7
2017-Sep-02 11:21N 29°37' W 093°18'12 2.9
2017-Sep-02 07:21N 29°49' W 093°21'0 0.0
2017-Sep-02 07:00N 29°49' W 093°21'0 0.0
2017-Sep-02 06:30N 29°49' W 093°21'0 0.0
2017-Sep-02 06:00N 29°49' W 093°21'0 0.0
2017-Sep-02 05:30N 29°49' W 093°21'  
Track history (hours):
 
Tides and Currents Weather Stations Pressure Air Temp Water Temp Dewpoint Dewpoint Depression Visibility Wind Speed Wind Dir Waves Ship Positions

Patience Lab

Owner: P&R Water Taxi, Honolulu, HI. More information available from US FCC via Universal Licensing System and Coast Guard Vessel Documentation Center.

Last reported at 2017-Sep-12 05:17 UTC. Time now 2017-Sep-22 11:52 UTC.
Position N 29°49' W 093°21'.
Warning: this ship's position is 10 days out of date.

Length 48 m; draft 3.2 m.

Type: Cargo ship. MMSI: 367605530.

Date/timePositionNaut miles runAvg speedWind from/ knotsBaromVisibWave heightAir tempDewpointWater temp
2017-Sep-12 05:17N 29°49' W 093°21'1 0.6
2017-Sep-12 04:02N 29°49' W 093°20'0 0.0
2017-Sep-12 03:55N 29°49' W 093°20'0 0.0
2017-Sep-12 02:13N 29°49' W 093°20'0 0.1
2017-Sep-12 02:00N 29°49' W 093°20'0 0.9
2017-Sep-12 01:30N 29°49' W 093°21'0 0.0
2017-Sep-11 06:05N 29°49' W 093°21'0 0.0
2017-Sep-11 05:33N 29°49' W 093°21'0 0.0
2017-Sep-11 05:29N 29°49' W 093°21'0 0.0
2017-Sep-10 10:03N 29°49' W 093°21'0 0.0
2017-Sep-10 08:24N 29°49' W 093°21'0 0.0
2017-Sep-10 07:55N 29°49' W 093°21'0 0.0
2017-Sep-10 07:29N 29°49' W 093°21'0 0.0
2017-Sep-10 06:59N 29°49' W 093°21'0 0.0
2017-Sep-10 05:20N 29°49' W 093°21'0 0.0
2017-Sep-10 04:20N 29°49' W 093°21'0 0.0
2017-Sep-10 04:00N 29°49' W 093°21'0 0.0
2017-Sep-10 03:30N 29°49' W 093°21'0 0.0
2017-Sep-10 03:00N 29°49' W 093°21'0 0.0
2017-Sep-09 10:25N 29°49' W 093°21'0 0.0
2017-Sep-09 09:18N 29°49' W 093°21'0 0.0
2017-Sep-09 08:58N 29°49' W 093°21'0 0.0
2017-Sep-09 08:30N 29°49' W 093°21'0 0.0
2017-Sep-09 07:59N 29°49' W 093°21'0 0.0
2017-Sep-09 07:30N 29°49' W 093°21'0 0.0
2017-Sep-09 07:00N 29°49' W 093°21'0 0.0
2017-Sep-09 06:30N 29°49' W 093°21'0 0.0
2017-Sep-09 04:36N 29°49' W 093°21'0 0.0
2017-Sep-09 04:29N 29°49' W 093°21'0 0.0
2017-Sep-09 03:49N 29°49' W 093°21'0 0.0
2017-Sep-09 02:19N 29°49' W 093°21'0 0.0
2017-Sep-09 01:10N 29°49' W 093°21'0 0.0
2017-Sep-09 00:50N 29°49' W 093°21'1 0.0
2017-Sep-08 09:52N 29°49' W 093°20'0 0.0
2017-Sep-08 08:48N 29°49' W 093°20'0 0.0
2017-Sep-08 08:18N 29°49' W 093°20'0 0.0
2017-Sep-08 07:55N 29°49' W 093°20'0 0.0
2017-Sep-08 07:30N 29°49' W 093°20'0 0.0
2017-Sep-08 06:44N 29°49' W 093°20'0 0.0
2017-Sep-08 06:16N 29°49' W 093°20'0 0.1
2017-Sep-08 04:57N 29°49' W 093°20'  
2017-Sep-02 12:40N 29°37' W 093°23'1 9.1
2017-Sep-02 12:30N 29°37' W 093°22'3 4.8
2017-Sep-02 11:51N 29°38' W 093°18'0 0.7
2017-Sep-02 11:21N 29°37' W 093°18'12 2.9
2017-Sep-02 07:21N 29°49' W 093°21'0 0.0
2017-Sep-02 07:00N 29°49' W 093°21'0 0.0
2017-Sep-02 06:30N 29°49' W 093°21'0 0.0
2017-Sep-02 06:00N 29°49' W 093°21'0 0.0
2017-Sep-02 05:30N 29°49' W 093°21'  

Dump ship's entire track history